Terminal Aerodrome Forecast
Issued by NWS

Home | Current Version | Previous Version | Text Only | Print | Product List | Glossary On
Versions: 1 2 3 4 5 6 7 8 9 10 11 12 13 14
000
FTUS46 KLOX 310700 AAA
TAFBUR
TAF AMD
KBUR 310721Z 3107/0106 VRB03KT P6SM SKC
     FM311000 VRB03KT P6SM OVC007
     FM311500 VRB03KT P6SM OVC012
     FM312100 17008KT P6SM BKN025 BKN100
     FM010300 15008KT P6SM VCSH BKN015 OVC035=

USA.gov is the U.S. government's official web portal to all federal, state and local government web resources and services.